CYPQ

Peterborough Airport

Peterborough, , Canada
METAR CYPQ 191100Z AUTO 00000KT 9SM BKN240 M08/M08 A3000 RMK SLP173
Observed Flight Rules
Dec-19 @ 11:00 UTC (40 minutes ago) Visual Flight Rules
Visibility Clouds
9 miles
  • Broken at 24,000' AGL
Temperatures Readings
Current -8°C / 18°F
Dewpoint -8°C / 18°F
Humidity 100%
Altimeter 30" Hg
Pressure 1017.3 hPa
Elevation 191
METAR CYPQ 191100Z AUTO 00000KT 9SM BKN240 M08/M08 A3000 RMK SLP173
Observed Flight Rules
Dec-19 @ 11:00 UTC
(40 minutes ago)
VFR
Clouds
  • Broken at 24,000' AGL
Temperature Dewpoint
-8°C / 18°F -8°C / 18°F
Humidity Altimeter Pressure
100% 30" Hg 1017.3 hPa